createdAt,value
2019-05-03T00:00:25.147Z,961.37
2019-05-03T00:01:25.138Z,961.37
2019-05-03T00:02:25.132Z,961.4
2019-05-03T00:03:25.124Z,961.36
2019-05-03T00:04:25.115Z,961.37
2019-05-03T00:05:25.108Z,961.38
2019-05-03T00:06:25.101Z,961.36
2019-05-03T00:07:25.093Z,961.36
2019-05-03T00:08:25.085Z,961.33
2019-05-03T00:09:25.079Z,961.32
2019-05-03T00:10:25.069Z,961.34
2019-05-03T00:11:25.063Z,961.34
2019-05-03T00:12:25.055Z,961.29
2019-05-03T00:13:25.048Z,961.31
2019-05-03T00:14:25.040Z,961.32
2019-05-03T00:15:25.032Z,961.28
2019-05-03T00:16:25.031Z,961.28
2019-05-03T00:17:25.018Z,961.26
2019-05-03T00:18:25.010Z,961.26
2019-05-03T00:19:25.004Z,961.23
2019-05-03T00:20:24.996Z,961.24
2019-05-03T00:21:24.988Z,961.23
2019-05-03T00:22:24.980Z,961.24
2019-05-03T00:23:24.972Z,961.23
2019-05-03T00:24:24.965Z,961.24
2019-05-03T00:25:24.960Z,961.23
2019-05-03T00:26:24.950Z,961.23
2019-05-03T00:27:24.943Z,961.26
2019-05-03T00:28:24.935Z,961.26
2019-05-03T00:29:24.928Z,961.24
2019-05-03T00:30:24.920Z,961.25
2019-05-03T00:31:24.913Z,961.24
2019-05-03T00:32:24.908Z,961.24
2019-05-03T00:33:24.901Z,961.22
2019-05-03T00:34:24.892Z,961.25
2019-05-03T00:35:24.884Z,961.25
2019-05-03T00:36:24.875Z,961.21
2019-05-03T00:37:24.867Z,961.22
2019-05-03T00:38:24.861Z,961.21
2019-05-03T00:39:24.854Z,961.25
2019-05-03T00:40:24.846Z,961.23
2019-05-03T00:41:24.839Z,961.19
2019-05-03T00:42:24.832Z,961.22
2019-05-03T00:43:24.824Z,961.21
2019-05-03T00:44:24.816Z,961.22
2019-05-03T00:45:24.808Z,961.21
2019-05-03T00:46:24.801Z,961.21
2019-05-03T00:47:24.794Z,961.19
2019-05-03T00:48:24.787Z,961.22
2019-05-03T00:49:24.779Z,961.18
2019-05-03T00:50:24.770Z,961.21
2019-05-03T00:51:24.764Z,961.21
2019-05-03T00:52:24.756Z,961.21
2019-05-03T00:53:24.748Z,961.2
2019-05-03T00:54:24.740Z,961.2
2019-05-03T00:55:24.733Z,961.2
2019-05-03T00:56:24.725Z,961.18
2019-05-03T00:57:24.718Z,961.2
2019-05-03T00:58:24.710Z,961.22
2019-05-03T00:59:24.703Z,961.21
2019-05-03T01:00:24.696Z,961.21
2019-05-03T01:01:24.687Z,961.21
2019-05-03T01:02:26.281Z,961.23
2019-05-03T01:03:24.674Z,961.18
2019-05-03T01:04:24.708Z,961.21
2019-05-03T01:05:24.657Z,961.22
2019-05-03T01:06:24.657Z,961.24
2019-05-03T01:07:24.643Z,961.19
2019-05-03T01:08:24.636Z,961.16
2019-05-03T01:09:24.630Z,961.19
2019-05-03T01:10:24.620Z,961.19
2019-05-03T01:11:24.612Z,961.18
2019-05-03T01:12:24.605Z,961.18
2019-05-03T01:13:24.598Z,961.17
2019-05-03T01:14:24.594Z,961.15
2019-05-03T01:15:24.583Z,961.13
2019-05-03T01:16:24.575Z,961.1
2019-05-03T01:17:24.567Z,961.1
2019-05-03T01:18:24.560Z,961.11
2019-05-03T01:19:24.555Z,961.09
2019-05-03T01:20:24.544Z,961.1
2019-05-03T01:21:24.538Z,961.09
2019-05-03T01:22:24.530Z,961.09
2019-05-03T01:23:24.523Z,961.12
2019-05-03T01:24:24.515Z,961.13
2019-05-03T01:25:32.084Z,961.1
2019-05-03T01:26:24.500Z,961.12
2019-05-03T01:27:24.492Z,961.08
2019-05-03T01:28:24.484Z,961.1
2019-05-03T01:29:24.484Z,961.11
2019-05-03T01:30:24.470Z,961.08
2019-05-03T01:31:24.462Z,961.13
2019-05-03T01:32:24.455Z,961.12
2019-05-03T01:33:24.446Z,961.07
2019-05-03T01:34:24.439Z,961.05
2019-05-03T01:35:24.432Z,961.1
2019-05-03T01:36:24.469Z,961.07
2019-05-03T01:37:24.420Z,961.06
2019-05-03T01:38:24.414Z,961.06
2019-05-03T01:39:24.401Z,961.03
2019-05-03T01:40:24.394Z,961.04
2019-05-03T01:41:24.388Z,961.03
2019-05-03T01:42:24.377Z,961.02
2019-05-03T01:43:24.368Z,961.05
2019-05-03T01:44:24.363Z,961.06
2019-05-03T01:45:24.355Z,961.05
2019-05-03T01:46:24.346Z,961.04
2019-05-03T01:47:24.340Z,961.03
2019-05-03T01:48:24.333Z,961.04
2019-05-03T01:49:24.324Z,961.06
2019-05-03T01:50:24.317Z,961.01
2019-05-03T01:51:24.310Z,961.04
2019-05-03T01:52:24.303Z,961.02
2019-05-03T01:53:24.293Z,961.03
2019-05-03T01:54:24.288Z,961.05
2019-05-03T01:55:24.278Z,961
2019-05-03T01:56:24.271Z,961.03
2019-05-03T01:57:24.264Z,961.02
2019-05-03T01:58:24.256Z,961.02
2019-05-03T01:59:24.250Z,961.04
2019-05-03T02:00:24.242Z,961.07
2019-05-03T02:01:24.235Z,961.02
2019-05-03T02:02:24.227Z,961.05
2019-05-03T02:03:24.220Z,961.04
2019-05-03T02:04:24.212Z,961.02
2019-05-03T02:05:24.202Z,961.04
2019-05-03T02:06:24.195Z,961
2019-05-03T02:07:24.191Z,960.98
2019-05-03T02:08:24.179Z,960.97
2019-05-03T02:09:24.173Z,960.96
2019-05-03T02:10:24.165Z,961
2019-05-03T02:11:24.158Z,960.97
2019-05-03T02:12:24.151Z,960.99
2019-05-03T02:13:24.143Z,961
2019-05-03T02:14:24.134Z,961.03
2019-05-03T02:15:24.129Z,961.05
2019-05-03T02:16:24.121Z,961.03
2019-05-03T02:17:24.113Z,961.03
2019-05-03T02:18:24.105Z,961.06
2019-05-03T02:19:24.098Z,961.06
2019-05-03T02:20:24.092Z,961.04
2019-05-03T02:21:24.084Z,961.03
2019-05-03T02:22:24.073Z,961.03
2019-05-03T02:23:24.067Z,961.05
2019-05-03T02:24:24.059Z,961.05
2019-05-03T02:25:24.051Z,961.05
2019-05-03T02:26:24.047Z,961.05
2019-05-03T02:27:24.044Z,961.07
2019-05-03T02:28:24.030Z,961.09
2019-05-03T02:29:24.021Z,961.05
2019-05-03T02:30:24.906Z,961.07
2019-05-03T02:31:24.006Z,961.06
2019-05-03T02:32:24.001Z,961.06
2019-05-03T02:33:23.997Z,961.05
2019-05-03T02:34:24.124Z,961.08
2019-05-03T02:35:23.978Z,961.06
2019-05-03T02:36:23.974Z,961.06
2019-05-03T02:37:23.960Z,961.03
2019-05-03T02:38:23.955Z,961.05
2019-05-03T02:39:23.948Z,961.04
2019-05-03T02:40:24.686Z,961.07
2019-05-03T02:41:23.952Z,961.03
2019-05-03T02:42:26.447Z,961.05
2019-05-03T02:43:25.936Z,961.03
2019-05-03T02:44:26.583Z,961.08
2019-05-03T02:45:25.852Z,961.04
2019-05-03T02:46:25.300Z,961.04
2019-05-03T02:47:26.311Z,961.08
2019-05-03T02:48:25.456Z,961.06
2019-05-03T02:49:25.717Z,961.07
2019-05-03T02:50:25.985Z,961.11
2019-05-03T02:51:25.955Z,961.08
2019-05-03T02:52:25.475Z,961.09
2019-05-03T02:53:25.807Z,961.07
2019-05-03T02:54:26.470Z,961.07
2019-05-03T02:55:25.991Z,961.08
2019-05-03T02:56:25.954Z,961.06
2019-05-03T02:57:25.802Z,961.05
2019-05-03T02:58:25.280Z,961.01
2019-05-03T02:59:26.335Z,961.02
2019-05-03T03:00:25.463Z,961.05
2019-05-03T03:01:26.201Z,961.05
2019-05-03T03:02:26.305Z,961.08
2019-05-03T03:03:25.455Z,961.06
2019-05-03T03:04:25.894Z,961.03
2019-05-03T03:05:25.241Z,961.07
2019-05-03T03:06:26.534Z,961.07
2019-05-03T03:07:25.802Z,961.03
2019-05-03T03:08:25.142Z,961.08
2019-05-03T03:09:25.849Z,961.05
2019-05-03T03:10:26.198Z,961.04
2019-05-03T03:11:26.067Z,961.07
2019-05-03T03:12:25.695Z,961.06
2019-05-03T03:13:25.286Z,961.09
2019-05-03T03:14:25.605Z,961.06
2019-05-03T03:15:25.649Z,961.1
2019-05-03T03:16:25.083Z,961.1
2019-05-03T03:17:25.410Z,961.09
2019-05-03T03:18:25.470Z,961.11
2019-05-03T03:19:26.069Z,961.13
2019-05-03T03:20:25.319Z,961.1
2019-05-03T03:21:25.930Z,961.09
2019-05-03T03:22:25.843Z,961.09
2019-05-03T03:23:26.089Z,961.11
2019-05-03T03:24:25.842Z,961.1
2019-05-03T03:25:25.741Z,961.06
2019-05-03T03:26:34.369Z,961.09
2019-05-03T03:27:25.562Z,961.11
2019-05-03T03:28:25.241Z,961.05
2019-05-03T03:29:25.210Z,961.08
2019-05-03T03:30:28.256Z,961.08
2019-05-03T03:31:27.728Z,961.09
2019-05-03T03:32:28.087Z,961.03
2019-05-03T03:33:27.657Z,961.09
2019-05-03T03:34:27.854Z,961.08
2019-05-03T03:35:28.996Z,961.07
2019-05-03T03:36:45.830Z,961.1
2019-05-03T03:37:25.731Z,961.07
2019-05-03T03:38:25.974Z,961.09
2019-05-03T03:39:25.898Z,961.1
2019-05-03T03:40:25.379Z,961.12
2019-05-03T03:41:24.911Z,961.11
2019-05-03T03:42:25.122Z,961.09
2019-05-03T03:43:25.740Z,961.12
2019-05-03T03:44:25.565Z,961.08
2019-05-03T03:45:25.331Z,961.06
2019-05-03T03:46:25.101Z,961.12
2019-05-03T03:47:23.432Z,961.11
2019-05-03T03:48:26.340Z,961.1
2019-05-03T03:49:25.957Z,961.11
2019-05-03T03:50:25.847Z,961.11
2019-05-03T03:51:26.057Z,961.13
2019-05-03T03:52:25.463Z,961.16
2019-05-03T03:53:26.141Z,961.15
2019-05-03T03:54:25.779Z,961.15
2019-05-03T03:55:26.146Z,961.15
2019-05-03T03:56:25.529Z,961.18
2019-05-03T03:57:25.208Z,961.12
2019-05-03T03:58:26.682Z,961.18
2019-05-03T03:59:26.153Z,961.21
2019-05-03T04:00:25.666Z,961.17
2019-05-03T04:01:26.372Z,961.19
2019-05-03T04:02:26.192Z,961.21
2019-05-03T04:03:25.835Z,961.23
2019-05-03T04:04:25.869Z,961.25
2019-05-03T04:05:25.334Z,961.27
2019-05-03T04:06:23.289Z,961.25
2019-05-03T04:07:25.975Z,961.29
2019-05-03T04:08:25.177Z,961.28
2019-05-03T04:09:25.505Z,961.31
2019-05-03T04:10:25.874Z,961.34
2019-05-03T04:11:25.539Z,961.34
2019-05-03T04:12:26.132Z,961.34
2019-05-03T04:13:25.492Z,961.34
2019-05-03T04:14:25.378Z,961.34
2019-05-03T04:15:25.743Z,961.36
2019-05-03T04:16:25.692Z,961.36
2019-05-03T04:17:25.754Z,961.39
2019-05-03T04:18:25.424Z,961.4
2019-05-03T04:19:25.086Z,961.44
2019-05-03T04:20:25.606Z,961.39
2019-05-03T04:21:25.444Z,961.42
2019-05-03T04:22:25.315Z,961.45
2019-05-03T04:23:23.157Z,961.44
2019-05-03T04:24:25.671Z,961.43
2019-05-03T04:25:25.845Z,961.47
2019-05-03T04:26:27.442Z,961.44
2019-05-03T04:27:26.955Z,961.41
2019-05-03T04:28:25.433Z,961.46
2019-05-03T04:29:25.323Z,961.46
2019-05-03T04:30:25.405Z,961.49
2019-05-03T04:31:25.896Z,961.49
2019-05-03T04:32:27.910Z,961.46
2019-05-03T04:33:23.085Z,961.47
2019-05-03T04:34:23.075Z,961.46
2019-05-03T04:35:23.070Z,961.5
2019-05-03T04:36:23.060Z,961.49
2019-05-03T04:37:23.050Z,961.5
2019-05-03T04:38:25.539Z,961.56
2019-05-03T04:39:25.551Z,961.54
2019-05-03T04:40:25.675Z,961.55
2019-05-03T04:41:23.028Z,961.59
2019-05-03T04:42:25.320Z,961.6
2019-05-03T04:43:26.123Z,961.56
2019-05-03T04:44:23.005Z,961.57
2019-05-03T04:45:25.271Z,961.65
2019-05-03T04:46:25.462Z,961.63
2019-05-03T04:47:22.974Z,961.62
2019-05-03T04:48:25.246Z,961.67
2019-05-03T04:49:25.816Z,961.63
2019-05-03T04:50:25.248Z,961.65
2019-05-03T04:51:25.556Z,961.68
2019-05-03T04:52:25.508Z,961.69
2019-05-03T04:53:22.928Z,961.69
2019-05-03T04:54:25.200Z,961.67
2019-05-03T04:55:22.912Z,961.7
2019-05-03T04:56:25.151Z,961.71
2019-05-03T04:57:36.275Z,961.7
2019-05-03T04:58:25.671Z,961.72
2019-05-03T04:59:25.259Z,961.76
2019-05-03T05:00:25.553Z,961.75
2019-05-03T05:01:22.866Z,961.77
2019-05-03T05:02:22.856Z,961.75
2019-05-03T05:03:22.849Z,961.8
2019-05-03T05:04:25.212Z,961.8
2019-05-03T05:05:25.714Z,961.8
2019-05-03T05:06:22.824Z,961.8
2019-05-03T05:07:22.828Z,961.83
2019-05-03T05:08:25.150Z,961.8
2019-05-03T05:09:22.803Z,961.83
2019-05-03T05:10:25.695Z,961.83
2019-05-03T05:11:22.796Z,961.82
2019-05-03T05:12:25.144Z,961.83
2019-05-03T05:13:24.924Z,961.87
2019-05-03T05:14:22.763Z,961.85
2019-05-03T05:15:22.756Z,961.84
2019-05-03T05:16:25.001Z,961.89
2019-05-03T05:17:22.741Z,961.86
2019-05-03T05:18:22.736Z,961.88
2019-05-03T05:19:22.725Z,961.9
2019-05-03T05:20:24.690Z,961.94
2019-05-03T05:21:22.716Z,961.93
2019-05-03T05:22:24.571Z,961.91
2019-05-03T05:23:22.692Z,961.9
2019-05-03T05:24:22.687Z,961.93
2019-05-03T05:25:22.678Z,961.96
2019-05-03T05:26:24.537Z,961.93
2019-05-03T05:27:22.664Z,961.97
2019-05-03T05:28:22.654Z,961.99
2019-05-03T05:29:22.646Z,961.99
2019-05-03T05:30:22.638Z,962
2019-05-03T05:31:22.631Z,962.03
2019-05-03T05:32:24.624Z,962.03
2019-05-03T05:33:22.624Z,962.07
2019-05-03T05:34:24.437Z,962.04
2019-05-03T05:35:24.410Z,962.03
2019-05-03T05:36:24.331Z,962.03
2019-05-03T05:37:22.586Z,962.05
2019-05-03T05:38:22.577Z,962.02
2019-05-03T05:39:24.003Z,962.04
2019-05-03T05:40:24.362Z,962.07
2019-05-03T05:41:24.449Z,962.05
2019-05-03T05:42:22.547Z,962.01
2019-05-03T05:43:22.538Z,962.03
2019-05-03T05:44:24.580Z,962.04
2019-05-03T05:45:24.318Z,962.03
2019-05-03T05:46:22.523Z,962.06
2019-05-03T05:47:22.506Z,962.07
2019-05-03T05:48:24.402Z,962.1
2019-05-03T05:49:22.492Z,962.1
2019-05-03T05:50:22.486Z,962.11
2019-05-03T05:51:22.476Z,962.09
2019-05-03T05:52:24.312Z,962.11
2019-05-03T05:53:22.460Z,962.12
2019-05-03T05:54:22.452Z,962.1
2019-05-03T05:55:22.445Z,962.15
2019-05-03T05:56:22.438Z,962.15
2019-05-03T05:57:22.428Z,962.09
2019-05-03T05:58:25.371Z,962.1
2019-05-03T05:59:24.660Z,962.11
2019-05-03T06:00:22.410Z,962.11
2019-05-03T06:01:22.396Z,962.09
2019-05-03T06:02:22.388Z,962.09
2019-05-03T06:03:22.383Z,962.09
2019-05-03T06:04:22.375Z,962.15
2019-05-03T06:05:22.367Z,962.14
2019-05-03T06:06:24.109Z,962.12
2019-05-03T06:07:22.352Z,962.15
2019-05-03T06:08:22.341Z,962.14
2019-05-03T06:09:22.334Z,962.15
2019-05-03T06:10:22.327Z,962.15
2019-05-03T06:11:22.319Z,962.18
2019-05-03T06:12:22.311Z,962.21
2019-05-03T06:13:22.303Z,962.19
2019-05-03T06:14:24.376Z,962.2
2019-05-03T06:15:24.895Z,962.18
2019-05-03T06:16:24.406Z,962.24
2019-05-03T06:17:22.270Z,962.2
2019-05-03T06:18:22.264Z,962.2
2019-05-03T06:19:22.255Z,962.22
2019-05-03T06:20:22.247Z,962.19
2019-05-03T06:21:22.240Z,962.23
2019-05-03T06:22:22.232Z,962.24
2019-05-03T06:23:22.225Z,962.19
2019-05-03T06:24:22.216Z,962.21
2019-05-03T06:25:22.213Z,962.25
2019-05-03T06:26:22.201Z,962.23
2019-05-03T06:27:24.101Z,962.26
2019-05-03T06:28:22.184Z,962.27
2019-05-03T06:29:22.178Z,962.24
2019-05-03T06:30:22.168Z,962.28
2019-05-03T06:31:22.750Z,962.33
2019-05-03T06:32:22.153Z,962.31
2019-05-03T06:33:22.145Z,962.34
2019-05-03T06:34:22.137Z,962.34
2019-05-03T06:35:22.128Z,962.29
2019-05-03T06:36:22.121Z,962.29
2019-05-03T06:37:22.114Z,962.35
2019-05-03T06:38:22.105Z,962.33
2019-05-03T06:39:22.104Z,962.31
2019-05-03T06:40:22.088Z,962.33
2019-05-03T06:41:22.081Z,962.34
2019-05-03T06:42:22.991Z,962.35
2019-05-03T06:43:22.064Z,962.34
2019-05-03T06:44:24.618Z,962.36
2019-05-03T06:45:22.047Z,962.39
2019-05-03T06:46:23.386Z,962.38
2019-05-03T06:47:22.032Z,962.35
2019-05-03T06:48:22.278Z,962.36
2019-05-03T06:49:22.016Z,962.37
2019-05-03T06:50:25.078Z,962.35
2019-05-03T06:51:22.000Z,962.34
2019-05-03T06:52:25.355Z,962.38
2019-05-03T06:53:21.984Z,962.37
2019-05-03T06:54:26.525Z,962.34
2019-05-03T06:55:21.971Z,962.38
2019-05-03T06:56:24.813Z,962.35
2019-05-03T06:57:21.953Z,962.42
2019-05-03T06:58:31.132Z,962.38
2019-05-03T06:59:21.938Z,962.39
2019-05-03T07:00:21.946Z,962.4
2019-05-03T07:01:21.922Z,962.4
2019-05-03T07:02:21.919Z,962.37
2019-05-03T07:03:21.906Z,962.4
2019-05-03T07:04:21.908Z,962.38
2019-05-03T07:05:21.890Z,962.4
2019-05-03T07:06:33.249Z,962.43
2019-05-03T07:07:21.872Z,962.45
2019-05-03T07:08:21.864Z,962.41
2019-05-03T07:09:21.857Z,962.34
2019-05-03T07:10:21.849Z,962.4
2019-05-03T07:11:21.840Z,962.35
2019-05-03T07:12:21.832Z,962.31
2019-05-03T07:13:21.826Z,962.31
2019-05-03T07:14:21.818Z,962.33
2019-05-03T07:15:21.808Z,962.35
2019-05-03T07:16:21.801Z,962.35
2019-05-03T07:17:21.794Z,962.32
2019-05-03T07:18:21.791Z,962.36
2019-05-03T07:19:21.776Z,962.35
2019-05-03T07:20:21.768Z,962.38
2019-05-03T07:21:21.759Z,962.39
2019-05-03T07:22:21.750Z,962.39
2019-05-03T07:23:21.743Z,962.42
2019-05-03T07:24:21.735Z,962.41
2019-05-03T07:25:21.726Z,962.43
2019-05-03T07:26:21.718Z,962.45
2019-05-03T07:27:21.710Z,962.42
2019-05-03T07:28:21.704Z,962.47
2019-05-03T07:29:21.695Z,962.43
2019-05-03T07:30:21.687Z,962.41
2019-05-03T07:31:21.679Z,962.44
2019-05-03T07:32:21.675Z,962.47
2019-05-03T07:33:21.662Z,962.45
2019-05-03T07:34:21.657Z,962.43
2019-05-03T07:35:21.647Z,962.49
2019-05-03T07:36:21.637Z,962.45
2019-05-03T07:37:21.630Z,962.44
2019-05-03T07:38:21.622Z,962.44
2019-05-03T07:39:21.616Z,962.46
2019-05-03T07:40:21.607Z,962.46
2019-05-03T07:41:24.381Z,962.49
2019-05-03T07:42:21.589Z,962.48
2019-05-03T07:43:21.581Z,962.48
2019-05-03T07:44:21.574Z,962.49
2019-05-03T07:45:21.566Z,962.49
2019-05-03T07:46:21.558Z,962.51
2019-05-03T07:47:21.548Z,962.43
2019-05-03T07:48:21.542Z,962.48
2019-05-03T07:49:21.533Z,962.46
2019-05-03T07:50:21.525Z,962.45
2019-05-03T07:51:21.515Z,962.47
2019-05-03T07:52:21.508Z,962.49
2019-05-03T07:53:21.500Z,962.46
2019-05-03T07:54:21.491Z,962.47
2019-05-03T07:55:21.484Z,962.52
2019-05-03T07:56:21.476Z,962.48
2019-05-03T07:57:21.468Z,962.52
2019-05-03T07:58:21.461Z,962.5
2019-05-03T07:59:21.450Z,962.5
2019-05-03T08:00:21.443Z,962.51
2019-05-03T08:01:21.436Z,962.56
2019-05-03T08:02:24.166Z,962.52
2019-05-03T08:03:21.418Z,962.54
2019-05-03T08:04:21.411Z,962.53
2019-05-03T08:05:21.401Z,962.53
2019-05-03T08:06:21.394Z,962.56
2019-05-03T08:07:22.937Z,962.54
2019-05-03T08:08:21.377Z,962.56
2019-05-03T08:09:21.370Z,962.57
2019-05-03T08:10:21.360Z,962.58
2019-05-03T08:11:21.352Z,962.59
2019-05-03T08:12:21.345Z,962.62
2019-05-03T08:13:21.337Z,962.59
2019-05-03T08:14:21.329Z,962.62
2019-05-03T08:15:21.320Z,962.59
2019-05-03T08:16:21.311Z,962.61
2019-05-03T08:17:21.304Z,962.58
2019-05-03T08:18:21.296Z,962.64
2019-05-03T08:19:23.431Z,962.65
2019-05-03T08:20:21.280Z,962.63
2019-05-03T08:21:21.271Z,962.66
2019-05-03T08:22:21.263Z,962.61
2019-05-03T08:23:27.237Z,962.66
2019-05-03T08:24:21.249Z,962.66
2019-05-03T08:25:21.239Z,962.68
2019-05-03T08:26:21.231Z,962.65
2019-05-03T08:27:21.222Z,962.67
2019-05-03T08:28:21.214Z,962.69
2019-05-03T08:29:21.206Z,962.71
2019-05-03T08:30:21.198Z,962.67
2019-05-03T08:31:23.827Z,962.67
2019-05-03T08:32:21.182Z,962.67
2019-05-03T08:33:21.176Z,962.75
2019-05-03T08:34:21.166Z,962.72
2019-05-03T08:35:21.159Z,962.71
2019-05-03T08:36:21.151Z,962.71
2019-05-03T08:37:21.144Z,962.74
2019-05-03T08:38:21.135Z,962.74
2019-05-03T08:39:21.127Z,962.75
2019-05-03T08:40:21.122Z,962.7
2019-05-03T08:41:21.112Z,962.73
2019-05-03T08:42:21.103Z,962.73
2019-05-03T08:43:21.095Z,962.75
2019-05-03T08:44:21.089Z,962.76
2019-05-03T08:45:21.077Z,962.76
2019-05-03T08:46:21.069Z,962.72
2019-05-03T08:47:21.061Z,962.8
2019-05-03T08:48:21.055Z,962.72
2019-05-03T08:49:21.045Z,962.75
2019-05-03T08:50:21.630Z,962.79
2019-05-03T08:51:21.030Z,962.76
2019-05-03T08:52:21.022Z,962.78
2019-05-03T08:53:21.013Z,962.81
2019-05-03T08:54:21.007Z,962.81
2019-05-03T08:55:20.996Z,962.82
2019-05-03T08:56:20.988Z,962.81
2019-05-03T08:57:20.985Z,962.85
2019-05-03T08:58:20.972Z,962.84
2019-05-03T08:59:29.586Z,962.83
2019-05-03T09:00:20.956Z,962.87
2019-05-03T09:01:20.948Z,962.85
2019-05-03T09:02:20.941Z,962.81
2019-05-03T09:03:20.932Z,962.86
2019-05-03T09:04:33.065Z,962.81
2019-05-03T09:05:27.894Z,962.83
2019-05-03T09:06:27.885Z,962.8
2019-05-03T09:07:27.879Z,962.78
2019-05-03T09:08:27.870Z,962.79
2019-05-03T09:09:27.862Z,962.85
2019-05-03T09:10:27.856Z,962.78
2019-05-03T09:11:33.526Z,962.79
2019-05-03T09:12:27.838Z,962.8
2019-05-03T09:13:27.829Z,962.81
2019-05-03T09:14:38.659Z,962.81
2019-05-03T09:15:27.813Z,962.81
2019-05-03T09:16:27.805Z,962.83
2019-05-03T09:17:27.798Z,962.82
2019-05-03T09:18:27.789Z,962.8
2019-05-03T09:19:27.782Z,962.86
2019-05-03T09:20:27.773Z,962.85
2019-05-03T09:21:27.767Z,962.81
2019-05-03T09:22:27.758Z,962.82
2019-05-03T09:23:27.751Z,962.8
2019-05-03T09:24:27.742Z,962.79
2019-05-03T09:25:27.739Z,962.84
2019-05-03T09:26:29.448Z,962.87
2019-05-03T09:27:27.719Z,962.85
2019-05-03T09:28:29.206Z,962.83
2019-05-03T09:29:39.653Z,962.86
2019-05-03T09:30:27.695Z,962.89
2019-05-03T09:31:27.686Z,962.88
2019-05-03T09:32:27.677Z,962.84
2019-05-03T09:33:27.669Z,962.87
2019-05-03T09:34:27.660Z,962.91
2019-05-03T09:35:32.663Z,962.85
2019-05-03T09:36:27.657Z,962.85
2019-05-03T09:37:27.637Z,962.9
2019-05-03T09:38:27.628Z,962.9
2019-05-03T09:39:27.621Z,962.88
2019-05-03T09:40:27.616Z,962.88
2019-05-03T09:41:27.605Z,962.9
2019-05-03T09:42:27.597Z,962.93
2019-05-03T09:43:27.590Z,962.92
2019-05-03T09:44:27.582Z,962.93
2019-05-03T09:45:27.575Z,962.95
2019-05-03T09:46:27.565Z,962.9
2019-05-03T09:47:27.558Z,962.91
2019-05-03T09:48:27.548Z,962.91
2019-05-03T09:49:27.541Z,962.95
2019-05-03T09:50:27.532Z,962.91
2019-05-03T09:51:27.524Z,962.91
2019-05-03T09:52:27.518Z,962.91
2019-05-03T09:53:27.508Z,962.91
2019-05-03T09:54:27.500Z,962.91
2019-05-03T09:55:27.492Z,962.96
2019-05-03T09:56:27.485Z,962.9
2019-05-03T09:57:27.475Z,962.92
2019-05-03T09:58:27.469Z,962.93
2019-05-03T09:59:27.459Z,962.97
2019-05-03T10:00:27.451Z,962.97
2019-05-03T10:01:27.444Z,962.95
2019-05-03T10:02:27.439Z,962.98
2019-05-03T10:03:27.429Z,962.96
2019-05-03T10:04:27.420Z,962.99
2019-05-03T10:05:27.411Z,962.98
2019-05-03T10:06:27.405Z,962.97
2019-05-03T10:07:27.396Z,963
2019-05-03T10:08:27.390Z,962.98
2019-05-03T10:09:27.380Z,962.96
2019-05-03T10:10:27.402Z,962.96
2019-05-03T10:11:27.366Z,962.98
2019-05-03T10:12:27.356Z,963
2019-05-03T10:13:27.461Z,962.99
2019-05-03T10:14:27.341Z,962.95
2019-05-03T10:15:27.332Z,962.93
2019-05-03T10:16:27.324Z,962.94
2019-05-03T10:17:27.317Z,963
2019-05-03T10:18:27.308Z,962.96
2019-05-03T10:19:36.490Z,962.93
2019-05-03T10:20:27.294Z,962.93
2019-05-03T10:21:27.285Z,962.94
2019-05-03T10:22:27.278Z,962.92
2019-05-03T10:23:27.270Z,962.94
2019-05-03T10:24:27.264Z,962.94
2019-05-03T10:25:27.253Z,962.93
2019-05-03T10:26:27.255Z,962.93
2019-05-03T10:27:27.237Z,962.93
2019-05-03T10:28:27.230Z,962.95
2019-05-03T10:29:27.220Z,962.94
2019-05-03T10:30:27.213Z,962.97
2019-05-03T10:31:27.207Z,962.95
2019-05-03T10:32:27.198Z,962.95
2019-05-03T10:33:27.188Z,962.96
2019-05-03T10:34:27.183Z,962.98
2019-05-03T10:35:27.174Z,962.95
2019-05-03T10:36:27.167Z,962.96
2019-05-03T10:37:27.156Z,962.95
2019-05-03T10:38:27.154Z,962.92
2019-05-03T10:39:27.146Z,962.94
2019-05-03T10:40:27.135Z,962.92
2019-05-03T10:41:27.146Z,962.92
2019-05-03T10:42:27.119Z,962.91
2019-05-03T10:43:27.112Z,962.9
2019-05-03T10:44:27.102Z,962.92
2019-05-03T10:45:28.084Z,962.94
2019-05-03T10:46:27.088Z,962.93
2019-05-03T10:47:27.082Z,962.94
2019-05-03T10:48:27.072Z,962.95
2019-05-03T10:49:27.062Z,962.91
2019-05-03T10:50:27.055Z,962.94
2019-05-03T10:51:27.078Z,962.89
2019-05-03T10:52:27.039Z,962.94
2019-05-03T10:53:27.033Z,962.95
2019-05-03T10:54:27.024Z,962.89
2019-05-03T10:55:27.015Z,962.89
2019-05-03T10:56:27.018Z,962.87
2019-05-03T10:57:27.003Z,962.91
2019-05-03T10:58:26.993Z,962.9
2019-05-03T10:59:26.987Z,962.92
2019-05-03T11:00:50.119Z,962.89
2019-05-03T11:01:26.968Z,962.89
2019-05-03T11:02:26.961Z,962.87
2019-05-03T11:03:26.953Z,962.87
2019-05-03T11:04:26.963Z,962.88
2019-05-03T11:05:26.938Z,962.87
2019-05-03T11:06:26.979Z,962.84
2019-05-03T11:07:26.926Z,962.84
2019-05-03T11:08:26.915Z,962.88
2019-05-03T11:09:26.913Z,962.86
2019-05-03T11:10:26.898Z,962.82
2019-05-03T11:11:26.891Z,962.82
2019-05-03T11:12:27.172Z,962.81
2019-05-03T11:13:26.883Z,962.79
2019-05-03T11:14:26.867Z,962.84
2019-05-03T11:15:26.885Z,962.83
2019-05-03T11:16:26.854Z,962.84
2019-05-03T11:17:26.844Z,962.82
2019-05-03T11:18:26.838Z,962.82
2019-05-03T11:19:26.828Z,962.82
2019-05-03T11:20:28.989Z,962.8
2019-05-03T11:21:28.750Z,962.82
2019-05-03T11:22:26.809Z,962.8
2019-05-03T11:23:26.799Z,962.78
2019-05-03T11:24:27.598Z,962.79
2019-05-03T11:25:26.781Z,962.82
2019-05-03T11:26:26.775Z,962.78
2019-05-03T11:27:26.771Z,962.78
2019-05-03T11:28:26.759Z,962.8
2019-05-03T11:29:26.752Z,962.79
2019-05-03T11:30:26.745Z,962.79
2019-05-03T11:31:26.736Z,962.78
2019-05-03T11:32:26.728Z,962.82
2019-05-03T11:33:26.721Z,962.79
2019-05-03T11:34:26.714Z,962.83
2019-05-03T11:35:26.705Z,962.77
2019-05-03T11:36:26.697Z,962.76
2019-05-03T11:37:26.691Z,962.77
2019-05-03T11:38:26.684Z,962.74
2019-05-03T11:39:26.673Z,962.76
2019-05-03T11:40:26.666Z,962.72
2019-05-03T11:41:31.966Z,962.76
2019-05-03T11:42:26.654Z,962.76
2019-05-03T11:43:26.644Z,962.75
2019-05-03T11:44:26.638Z,962.75
2019-05-03T11:45:26.630Z,962.77
2019-05-03T11:46:26.619Z,962.72
2019-05-03T11:47:27.656Z,962.72
2019-05-03T11:48:26.606Z,962.75
2019-05-03T11:49:26.600Z,962.72
2019-05-03T11:50:26.589Z,962.71
2019-05-03T11:51:26.582Z,962.71
2019-05-03T11:52:26.575Z,962.69
2019-05-03T11:53:26.566Z,962.71
2019-05-03T11:54:26.560Z,962.7
2019-05-03T11:55:26.892Z,962.71
2019-05-03T11:56:26.544Z,962.73
2019-05-03T11:57:26.678Z,962.72
2019-05-03T11:58:27.288Z,962.65
2019-05-03T11:59:26.621Z,962.69
2019-05-03T12:00:26.796Z,962.68
2019-05-03T12:01:26.506Z,962.64
2019-05-03T12:02:26.495Z,962.67
2019-05-03T12:03:26.488Z,962.63
2019-05-03T12:04:26.480Z,962.61
2019-05-03T12:05:26.506Z,962.62
2019-05-03T12:06:26.465Z,962.62
2019-05-03T12:07:38.171Z,962.64
2019-05-03T12:08:26.449Z,962.62
2019-05-03T12:09:26.440Z,962.58
2019-05-03T12:10:44.026Z,962.62
2019-05-03T12:11:26.427Z,962.61
2019-05-03T12:12:29.202Z,962.61
2019-05-03T12:13:26.413Z,962.61
2019-05-03T12:14:26.404Z,962.59
2019-05-03T12:15:26.395Z,962.59
2019-05-03T12:17:00.493Z,962.58
2019-05-03T12:17:35.752Z,962.59
2019-05-03T12:18:48.714Z,962.58
2019-05-03T12:19:37.437Z,962.56
2019-05-03T12:20:36.738Z,962.54
2019-05-03T12:21:37.366Z,962.51
2019-05-03T12:22:36.037Z,962.54
2019-05-03T12:23:36.571Z,962.52
2019-05-03T12:24:36.227Z,962.52
2019-05-03T12:25:36.201Z,962.51
2019-05-03T12:26:43.331Z,962.5
2019-05-03T12:27:35.378Z,962.54
2019-05-03T12:28:35.476Z,962.51
2019-05-03T12:29:35.386Z,962.51
2019-05-03T12:30:35.666Z,962.5
2019-05-03T12:31:40.020Z,962.54